Celtic Crusader — 2GGS3 — position and weather

sailwx.info

Track history (hours):
 
Tides and Currents Weather Stations Pressure Air Temp Water Temp Dewpoint Dewpoint Depression Visibility Wind Speed Wind Dir Waves Ship Positions

Celtic Crusader

Last reported at 2017-Nov-18 05:37 UTC. Time now 2017-Nov-20 06:24 UTC.
Position N 53°43' W 000°37'.

Length 88 m; draft 5.5 m.

Type: Cargo ship. MMSI: 235097248.

Date/timePositionNaut miles runAvg speedWind from/ knotsBaromVisibWave heightAir tempDewpointWater temp
2017-Nov-18 05:37N 53°43' W 000°37'110.5
2017-Nov-18 05:28N 53°42' W 000°35'4 7.6
2017-Nov-18 05:01N 53°42' W 000°29'510.3
2017-Nov-18 04:31N 53°43' W 000°21'4 8.1
2017-Nov-18 04:00N 53°42' W 000°14'4 9.0
2017-Nov-18 03:30N 53°38' W 000°09'510.8
2017-Nov-18 03:00N 53°36' W 000°01'2 0.6
2017-Nov-18 00:10N 53°36' E 000°01'0 0.2
2017-Nov-17 23:58N 53°36' E 000°01'0 0.1
2017-Nov-17 23:28N 53°36' E 000°02'0 0.0
2017-Nov-17 22:58N 53°36' E 000°02'0 0.0
2017-Nov-17 22:28N 53°36' E 000°02'0 0.0
2017-Nov-17 21:55N 53°36' E 000°02'0 0.0
2017-Nov-17 20:40N 53°36' E 000°02'0 0.0
2017-Nov-17 20:16N 53°36' E 000°02'0 0.0
2017-Nov-17 19:52N 53°36' E 000°02'0 0.0
2017-Nov-17 19:22N 53°36' E 000°02'0 0.0
2017-Nov-17 18:52N 53°36' E 000°02'0 0.4
2017-Nov-17 18:29N 53°36' E 000°02'5 9.4
2017-Nov-17 18:00N 53°37' W 000°06'5 9.5
2017-Nov-17 17:30N 53°40' W 000°12'4 8.4
2017-Nov-17 17:00N 53°43' W 000°15'4 7.2
2017-Nov-17 16:30N 53°43' W 000°21'1 1.4
2017-Nov-17 16:00N 53°43' W 000°20'4 7.7
2017-Nov-17 15:30N 53°42' W 000°14'4 8.8
2017-Nov-17 15:00N 53°38' W 000°10'4 8.1
2017-Nov-17 14:30N 53°37' W 000°04'4 7.1
2017-Nov-17 14:00N 53°35' E 000°02'4 8.6
2017-Nov-17 13:30N 53°33' E 000°08'48 1.8
2017-Nov-16 10:41N 53°02' E 001°09'2 9.3
2017-Nov-16 10:30N 53°01' E 001°11'5 9.4
2017-Nov-16 10:00N 52°59' E 001°19'5 9.8
2017-Nov-16 09:30N 52°57' E 001°26'510.0
2017-Nov-16 09:00N 52°55' E 001°33'5 9.2
2017-Nov-16 08:30N 52°52' E 001°40'4 8.8
2017-Nov-16 08:00N 52°49' E 001°45'4 8.0
2017-Nov-16 07:30N 52°47' E 001°50'4 7.6
2017-Nov-16 07:00N 52°44' E 001°55'4 7.4
2017-Nov-16 06:30N 52°41' E 001°57'4 7.3
2017-Nov-16 06:00N 52°37' E 001°57'5 7.2
2017-Nov-16 05:20N 52°32' E 001°56'3 7.5
2017-Nov-16 05:00N 52°30' E 001°56'4 8.5
2017-Nov-16 04:30N 52°25' E 001°55'5 8.9
2017-Nov-16 04:00N 52°21' E 001°54'9 9.3
2017-Nov-16 03:00N 52°12' E 001°52'4 8.9
2017-Nov-16 02:30N 52°07' E 001°51'5 9.7
2017-Nov-16 02:00N 52°02' E 001°50'511.0
2017-Nov-16 01:30N 51°57' E 001°49'510.9
2017-Nov-16 01:00N 51°52' E 001°48'611.0
2017-Nov-16 00:30N 51°46' E 001°49'611.1
2017-Nov-16 00:00N 51°41' E 001°50'611.4
2017-Nov-15 23:30N 51°35' E 001°49'611.4
2017-Nov-15 23:00N 51°29' E 001°47'611.6
2017-Nov-15 22:30N 51°24' E 001°44'611.7
2017-Nov-15 22:00N 51°18' E 001°41'611.7
2017-Nov-15 21:30N 51°13' E 001°38'510.0
2017-Nov-15 21:01N 51°08' E 001°41'611.3
2017-Nov-15 20:30N 51°03' E 001°36'510.9
2017-Nov-15 20:00N 50°59' E 001°30'5 9.8
2017-Nov-15 19:30N 50°55' E 001°26'5 9.6
2017-Nov-15 19:00N 50°51' E 001°24'53 8.6
2017-Nov-15 12:47N 50°24' E 000°11'2 8.7
2017-Nov-15 12:30N 50°23' E 000°08'8 8.7
2017-Nov-15 11:34N 50°21' W 000°04'1 8.8
2017-Nov-15 11:29N 50°21' W 000°05'6 8.7
2017-Nov-15 10:49N 50°19' W 000°15'4110.4
2017-Nov-15 06:51N 50°08' W 001°16'412.6
2017-Nov-15 06:30N 50°07' W 001°23'612.7
2017-Nov-15 06:01N 50°05' W 001°32'612.9
2017-Nov-15 05:30N 50°03' W 001°42'713.1
2017-Nov-15 05:00N 50°02' W 001°52'90 9.6
2017-Nov-14 19:36N 49°25' W 003°60'6 8.9
2017-Nov-14 18:55N 49°22' W 004°08'4 9.0
2017-Nov-14 18:28N 49°19' W 004°13'6 9.2
2017-Nov-14 17:52N 49°17' W 004°20'4 9.4
2017-Nov-14 17:25N 49°14' W 004°25'6 9.6
2017-Nov-14 16:45N 49°11' W 004°34'3 9.7
2017-Nov-14 16:27N 49°09' W 004°37'810.1
2017-Nov-14 15:38N 49°05' W 004°48'410.4
2017-Nov-14 15:15N 49°03' W 004°53'810.6
2017-Nov-14 14:30N 48°59' W 005°04'910.9
2017-Nov-14 13:42N 48°54' W 005°15'311.1
2017-Nov-14 13:23N 48°53' W 005°19'1311.1
2017-Nov-14 12:15N 48°46' W 005°36'2311.0
2017-Nov-14 10:11N 48°26' W 005°52'510.6
2017-Nov-14 09:43N 48°22' W 005°55'510.2
2017-Nov-14 09:16N 48°17' W 005°59'410.1
2017-Nov-14 08:55N 48°14' W 006°01'6 9.9
2017-Nov-14 08:21N 48°10' W 006°06'4 9.7
2017-Nov-14 07:56N 48°06' W 006°08'14 9.3
2017-Nov-14 06:26N 47°53' W 006°17'6 9.1
2017-Nov-14 05:49N 47°48' W 006°21'16 8.9
2017-Nov-14 04:04N 47°35' W 006°32'  
2017-Nov-11 10:59N 39°20' W 009°50'4 7.4
2017-Nov-11 10:26N 39°16' W 009°50'3 7.7
2017-Nov-11 10:00N 39°12' W 009°50'4 7.8
2017-Nov-11 09:30N 39°08' W 009°50'4 7.7
2017-Nov-11 09:00N 39°05' W 009°50'4 7.9
2017-Nov-11 08:30N 39°01' W 009°50'4 8.1
2017-Nov-11 08:00N 38°57' W 009°50'4 8.0
2017-Nov-11 07:30N 38°53' W 009°50'4 8.1
2017-Nov-11 07:00N 38°49' W 009°50'4 7.6
2017-Nov-11 06:30N 38°45' W 009°50'4 7.9
2017-Nov-11 06:00N 38°41' W 009°50'4 7.7
2017-Nov-11 05:30N 38°37' W 009°49'4 7.7
2017-Nov-11 05:00N 38°33' W 009°49'4 7.4
2017-Nov-11 04:30N 38°30' W 009°48'4 7.6
2017-Nov-11 04:00N 38°26' W 009°47'4 7.7
2017-Nov-11 03:30N 38°22' W 009°45'4 7.6
2017-Nov-11 03:00N 38°18' W 009°44'4 7.6
2017-Nov-11 02:30N 38°15' W 009°43'4 7.7
2017-Nov-11 02:00N 38°11' W 009°42'4 8.3
2017-Nov-11 01:30N 38°07' W 009°41'5 8.5
2017-Nov-11 00:58N 38°03' W 009°39'4 8.6
2017-Nov-11 00:30N 37°59' W 009°38'11 8.9
2017-Nov-10 23:18N 37°48' W 009°35'3 8.9
2017-Nov-10 23:00N 37°46' W 009°34'4 8.8
2017-Nov-10 22:30N 37°41' W 009°33'5 8.8
2017-Nov-10 21:57N 37°37' W 009°32'4 8.9
2017-Nov-10 21:30N 37°33' W 009°30'5 9.1
2017-Nov-10 20:55N 37°28' W 009°29'5 9.3
2017-Nov-10 20:26N 37°23' W 009°27'5 9.2
2017-Nov-10 19:52N 37°18' W 009°26'4 8.9
2017-Nov-10 19:27N 37°15' W 009°24'203 8.5
2017-Nov-09 19:35N 35°60' W 005°29'1 8.6
2017-Nov-09 19:30N 35°60' W 005°29'  
Track history (hours):
 
Tides and Currents Weather Stations Pressure Air Temp Water Temp Dewpoint Dewpoint Depression Visibility Wind Speed Wind Dir Waves Ship Positions

Celtic Crusader

Last reported at 2017-Nov-18 05:37 UTC. Time now 2017-Nov-20 06:24 UTC.
Position N 53°43' W 000°37'.

Length 88 m; draft 5.5 m.

Type: Cargo ship. MMSI: 235097248.

Date/timePositionNaut miles runAvg speedWind from/ knotsBaromVisibWave heightAir tempDewpointWater temp
2017-Nov-18 05:37N 53°43' W 000°37'110.5
2017-Nov-18 05:28N 53°42' W 000°35'4 7.6
2017-Nov-18 05:01N 53°42' W 000°29'510.3
2017-Nov-18 04:31N 53°43' W 000°21'4 8.1
2017-Nov-18 04:00N 53°42' W 000°14'4 9.0
2017-Nov-18 03:30N 53°38' W 000°09'510.8
2017-Nov-18 03:00N 53°36' W 000°01'2 0.6
2017-Nov-18 00:10N 53°36' E 000°01'0 0.2
2017-Nov-17 23:58N 53°36' E 000°01'0 0.1
2017-Nov-17 23:28N 53°36' E 000°02'0 0.0
2017-Nov-17 22:58N 53°36' E 000°02'0 0.0
2017-Nov-17 22:28N 53°36' E 000°02'0 0.0
2017-Nov-17 21:55N 53°36' E 000°02'0 0.0
2017-Nov-17 20:40N 53°36' E 000°02'0 0.0
2017-Nov-17 20:16N 53°36' E 000°02'0 0.0
2017-Nov-17 19:52N 53°36' E 000°02'0 0.0
2017-Nov-17 19:22N 53°36' E 000°02'0 0.0
2017-Nov-17 18:52N 53°36' E 000°02'0 0.4
2017-Nov-17 18:29N 53°36' E 000°02'5 9.4
2017-Nov-17 18:00N 53°37' W 000°06'5 9.5
2017-Nov-17 17:30N 53°40' W 000°12'4 8.4
2017-Nov-17 17:00N 53°43' W 000°15'4 7.2
2017-Nov-17 16:30N 53°43' W 000°21'1 1.4
2017-Nov-17 16:00N 53°43' W 000°20'4 7.7
2017-Nov-17 15:30N 53°42' W 000°14'4 8.8
2017-Nov-17 15:00N 53°38' W 000°10'4 8.1
2017-Nov-17 14:30N 53°37' W 000°04'4 7.1
2017-Nov-17 14:00N 53°35' E 000°02'4 8.6
2017-Nov-17 13:30N 53°33' E 000°08'48 1.8
2017-Nov-16 10:41N 53°02' E 001°09'2 9.3
2017-Nov-16 10:30N 53°01' E 001°11'5 9.4
2017-Nov-16 10:00N 52°59' E 001°19'5 9.8
2017-Nov-16 09:30N 52°57' E 001°26'510.0
2017-Nov-16 09:00N 52°55' E 001°33'5 9.2
2017-Nov-16 08:30N 52°52' E 001°40'4 8.8
2017-Nov-16 08:00N 52°49' E 001°45'4 8.0
2017-Nov-16 07:30N 52°47' E 001°50'4 7.6
2017-Nov-16 07:00N 52°44' E 001°55'4 7.4
2017-Nov-16 06:30N 52°41' E 001°57'4 7.3
2017-Nov-16 06:00N 52°37' E 001°57'5 7.2
2017-Nov-16 05:20N 52°32' E 001°56'3 7.5
2017-Nov-16 05:00N 52°30' E 001°56'4 8.5
2017-Nov-16 04:30N 52°25' E 001°55'5 8.9
2017-Nov-16 04:00N 52°21' E 001°54'9 9.3
2017-Nov-16 03:00N 52°12' E 001°52'4 8.9
2017-Nov-16 02:30N 52°07' E 001°51'5 9.7
2017-Nov-16 02:00N 52°02' E 001°50'511.0
2017-Nov-16 01:30N 51°57' E 001°49'510.9
2017-Nov-16 01:00N 51°52' E 001°48'611.0
2017-Nov-16 00:30N 51°46' E 001°49'611.1
2017-Nov-16 00:00N 51°41' E 001°50'611.4
2017-Nov-15 23:30N 51°35' E 001°49'611.4
2017-Nov-15 23:00N 51°29' E 001°47'611.6
2017-Nov-15 22:30N 51°24' E 001°44'611.7
2017-Nov-15 22:00N 51°18' E 001°41'611.7
2017-Nov-15 21:30N 51°13' E 001°38'510.0
2017-Nov-15 21:01N 51°08' E 001°41'611.3
2017-Nov-15 20:30N 51°03' E 001°36'510.9
2017-Nov-15 20:00N 50°59' E 001°30'5 9.8
2017-Nov-15 19:30N 50°55' E 001°26'5 9.6
2017-Nov-15 19:00N 50°51' E 001°24'53 8.6
2017-Nov-15 12:47N 50°24' E 000°11'2 8.7
2017-Nov-15 12:30N 50°23' E 000°08'8 8.7
2017-Nov-15 11:34N 50°21' W 000°04'1 8.8
2017-Nov-15 11:29N 50°21' W 000°05'6 8.7
2017-Nov-15 10:49N 50°19' W 000°15'4110.4
2017-Nov-15 06:51N 50°08' W 001°16'412.6
2017-Nov-15 06:30N 50°07' W 001°23'612.7
2017-Nov-15 06:01N 50°05' W 001°32'612.9
2017-Nov-15 05:30N 50°03' W 001°42'713.1
2017-Nov-15 05:00N 50°02' W 001°52'90 9.6
2017-Nov-14 19:36N 49°25' W 003°60'6 8.9
2017-Nov-14 18:55N 49°22' W 004°08'4 9.0
2017-Nov-14 18:28N 49°19' W 004°13'6 9.2
2017-Nov-14 17:52N 49°17' W 004°20'4 9.4
2017-Nov-14 17:25N 49°14' W 004°25'6 9.6
2017-Nov-14 16:45N 49°11' W 004°34'3 9.7
2017-Nov-14 16:27N 49°09' W 004°37'810.1
2017-Nov-14 15:38N 49°05' W 004°48'410.4
2017-Nov-14 15:15N 49°03' W 004°53'810.6
2017-Nov-14 14:30N 48°59' W 005°04'910.9
2017-Nov-14 13:42N 48°54' W 005°15'311.1
2017-Nov-14 13:23N 48°53' W 005°19'1311.1
2017-Nov-14 12:15N 48°46' W 005°36'2311.0
2017-Nov-14 10:11N 48°26' W 005°52'510.6
2017-Nov-14 09:43N 48°22' W 005°55'510.2
2017-Nov-14 09:16N 48°17' W 005°59'410.1
2017-Nov-14 08:55N 48°14' W 006°01'6 9.9
2017-Nov-14 08:21N 48°10' W 006°06'4 9.7
2017-Nov-14 07:56N 48°06' W 006°08'14 9.3
2017-Nov-14 06:26N 47°53' W 006°17'6 9.1
2017-Nov-14 05:49N 47°48' W 006°21'16 8.9
2017-Nov-14 04:04N 47°35' W 006°32'  
2017-Nov-11 10:59N 39°20' W 009°50'4 7.4
2017-Nov-11 10:26N 39°16' W 009°50'3 7.7
2017-Nov-11 10:00N 39°12' W 009°50'4 7.8
2017-Nov-11 09:30N 39°08' W 009°50'4 7.7
2017-Nov-11 09:00N 39°05' W 009°50'4 7.9
2017-Nov-11 08:30N 39°01' W 009°50'4 8.1
2017-Nov-11 08:00N 38°57' W 009°50'4 8.0
2017-Nov-11 07:30N 38°53' W 009°50'4 8.1
2017-Nov-11 07:00N 38°49' W 009°50'4 7.6
2017-Nov-11 06:30N 38°45' W 009°50'4 7.9
2017-Nov-11 06:00N 38°41' W 009°50'4 7.7
2017-Nov-11 05:30N 38°37' W 009°49'4 7.7
2017-Nov-11 05:00N 38°33' W 009°49'4 7.4
2017-Nov-11 04:30N 38°30' W 009°48'4 7.6
2017-Nov-11 04:00N 38°26' W 009°47'4 7.7
2017-Nov-11 03:30N 38°22' W 009°45'4 7.6
2017-Nov-11 03:00N 38°18' W 009°44'4 7.6
2017-Nov-11 02:30N 38°15' W 009°43'4 7.7
2017-Nov-11 02:00N 38°11' W 009°42'4 8.3
2017-Nov-11 01:30N 38°07' W 009°41'5 8.5
2017-Nov-11 00:58N 38°03' W 009°39'4 8.6
2017-Nov-11 00:30N 37°59' W 009°38'11 8.9
2017-Nov-10 23:18N 37°48' W 009°35'3 8.9
2017-Nov-10 23:00N 37°46' W 009°34'4 8.8
2017-Nov-10 22:30N 37°41' W 009°33'5 8.8
2017-Nov-10 21:57N 37°37' W 009°32'4 8.9
2017-Nov-10 21:30N 37°33' W 009°30'5 9.1
2017-Nov-10 20:55N 37°28' W 009°29'5 9.3
2017-Nov-10 20:26N 37°23' W 009°27'5 9.2
2017-Nov-10 19:52N 37°18' W 009°26'4 8.9
2017-Nov-10 19:27N 37°15' W 009°24'203 8.5
2017-Nov-09 19:35N 35°60' W 005°29'1 8.6
2017-Nov-09 19:30N 35°60' W 005°29'  

Dump ship's entire track history